Terminal Aerodrome Forecast
Issued by NWS Shreveport, LA

Home | Current Version | Previous Version | Text Only | Print | Product List | Glossary On
Versions: 1 2 3 4 5 6 7 8 9 10 11 12 13 14 15 16 17 18 19
018
FTUS44 KSHV 060544
TAFELD
TAF
KELD 060544Z 0606/0706 VRB04KT 5SM -RA BR BKN005 OVC035
      TEMPO 0607/0610 2SM -TSRA BR BKN004 OVC035CB
     FM061200 27005KT 4SM -DZ BR OVC003
     FM061600 31006KT P6SM BKN010
     FM062000 01006KT P6SM BKN015
     FM070000 04003KT P6SM BKN025=

USA.gov is the U.S. government's official web portal to all federal, state and local government web resources and services.